Time;durP1;ratioP1;P1;durP2;ratioP2;P2;SDS_P1;SDS_P2;PMS_P1;PMS_P2;Temp;Humidity;BMP_temperature;BMP_pressure;BME280_temperature;BME280_humidity;BME280_pressure;Samples;Min_cycle;Max_cycle;Signal;HPM_P1;HPM_P2
2021/03/31 00:06:36;;;;;;;1999.90;999.90;;;10.00;99.50;;;;;;6126006;23;20016;-95
2021/03/31 00:09:12;;;;;;;1999.90;999.90;;;10.00;99.90;;;;;;6125468;23;20049;-96
2021/03/31 00:11:51;;;;;;;1999.90;999.90;;;9.90;99.70;;;;;;6126713;23;20028;-95
2021/03/31 00:14:20;;;;;;;1999.90;999.90;;;9.80;99.80;;;;;;6126621;23;20022;-94
2021/03/31 00:17:12;;;;;;;1999.90;999.90;;;9.80;99.80;;;;;;6125798;23;20341;-94
2021/03/31 00:19:53;;;;;;;1999.90;999.90;;;9.80;99.90;;;;;;6125469;23;20077;-96
2021/03/31 00:22:34;;;;;;;1999.90;999.90;;;9.70;99.90;;;;;;6125773;23;20025;-95
2021/03/31 00:25:19;;;;;;;1999.90;999.90;;;9.80;99.90;;;;;;6127497;23;20032;-95
2021/03/31 00:28:07;;;;;;;1999.90;999.90;;;9.70;99.90;;;;;;6126391;23;20082;-94
2021/03/31 00:30:55;;;;;;;1999.90;999.90;;;9.70;99.90;;;;;;6125953;23;20026;-95
2021/03/31 00:33:35;;;;;;;1999.90;999.90;;;9.60;99.90;;;;;;6125740;23;20068;-95
2021/03/31 00:36:11;;;;;;;1999.90;999.90;;;9.60;99.90;;;;;;6125742;23;20041;-95
2021/03/31 00:38:44;;;;;;;1999.90;999.90;;;9.60;99.90;;;;;;6125515;23;20149;-94
2021/03/31 00:41:15;;;;;;;1999.90;999.90;;;9.50;99.90;;;;;;6125542;23;20026;-95
2021/03/31 00:43:48;;;;;;;1999.90;999.90;;;9.50;99.90;;;;;;6125783;23;20026;-95
2021/03/31 00:46:18;;;;;;;1999.90;999.90;;;9.50;99.90;;;;;;6126690;23;20026;-95
2021/03/31 00:48:53;;;;;;;1999.90;999.90;;;9.50;99.90;;;;;;6125624;23;20052;-95
2021/03/31 00:51:28;;;;;;;1999.90;999.90;;;9.40;99.90;;;;;;6125718;23;20061;-95
2021/03/31 00:54:05;;;;;;;1999.90;999.90;;;9.40;99.90;;;;;;6125261;23;20022;-94
2021/03/31 00:56:35;;;;;;;1999.90;999.90;;;9.40;99.90;;;;;;6125833;23;20022;-95
2021/03/31 00:59:12;;;;;;;1999.90;999.90;;;9.40;99.90;;;;;;6127340;23;20026;-95
2021/03/31 01:01:54;;;;;;;1999.90;999.90;;;9.30;99.90;;;;;;6127704;23;20022;-94
2021/03/31 01:04:34;;;;;;;1999.90;999.90;;;9.30;99.90;;;;;;6127553;23;20345;-95
2021/03/31 01:07:03;;;;;;;1999.90;999.90;;;9.30;99.90;;;;;;6127701;23;20025;-95
2021/03/31 01:15:39;;;;;;;1999.90;999.90;;;9.20;99.90;;;;;;6126373;23;20434;-95
2021/03/31 01:18:32;;;;;;;1999.90;999.90;;;9.20;99.90;;;;;;6127203;23;20047;-95
2021/03/31 01:21:54;;;;;;;1999.90;999.90;;;9.10;99.90;;;;;;6127206;23;20022;-95
2021/03/31 01:25:03;;;;;;;1999.90;999.90;;;9.10;99.90;;;;;;6127631;23;20113;-95
2021/03/31 01:27:57;;;;;;;1999.90;999.90;;;9.10;99.90;;;;;;6127278;23;20022;-94
2021/03/31 01:31:08;;;;;;;1999.90;999.90;;;9.10;99.90;;;;;;6127484;23;20022;-95
2021/03/31 01:34:09;;;;;;;1999.90;999.90;;;9.00;99.90;;;;;;6127496;23;20101;-95
2021/03/31 01:36:40;;;;;;;1999.90;999.90;;;9.00;99.90;;;;;;6126946;23;20056;-94
2021/03/31 01:39:16;;;;;;;1999.90;999.90;;;9.00;99.90;;;;;;6127877;23;20029;-94
2021/03/31 01:41:45;;;;;;;1999.90;999.90;;;9.00;99.90;;;;;;6127368;23;20110;-95
2021/03/31 01:44:21;;;;;;;1999.90;999.90;;;8.90;99.90;;;;;;6127280;23;20042;-94
2021/03/31 01:46:50;;;;;;;;;;;8.90;99.90;;;;;;6127859;23;20040;-95
2021/03/31 01:49:22;;;;;;;1999.90;999.90;;;8.90;99.90;;;;;;6127064;23;19928;-94
2021/03/31 01:51:57;;;;;;;1999.90;999.90;;;8.90;99.90;;;;;;6126946;23;20027;-95
2021/03/31 01:54:35;;;;;;;1999.90;999.90;;;8.90;99.90;;;;;;6127257;23;20029;-94
2021/03/31 01:57:04;;;;;;;1999.90;999.90;;;8.80;99.90;;;;;;6126693;23;20029;-94
2021/03/31 01:59:40;;;;;;;1999.90;999.90;;;8.80;99.90;;;;;;6126887;23;20026;-93
2021/03/31 02:02:13;;;;;;;1999.90;999.90;;;8.80;99.90;;;;;;6126882;23;20033;-95
2021/03/31 02:04:41;;;;;;;1999.90;999.90;;;8.70;99.90;;;;;;6127546;23;20022;-94
2021/03/31 02:07:11;;;;;;;1999.90;999.90;;;8.80;99.90;;;;;;6127172;23;20022;-95
2021/03/31 02:09:44;;;;;;;1999.90;999.90;;;8.70;99.90;;;;;;6127627;23;20025;-95
2021/03/31 02:12:15;;;;;;;1999.90;999.90;;;8.70;99.90;;;;;;6126833;23;20354;-95
2021/03/31 02:14:48;;;;;;;1999.90;999.90;;;8.70;99.90;;;;;;6127755;23;20026;-95
2021/03/31 02:17:21;;;;;;;1999.90;999.90;;;8.60;99.90;;;;;;6127153;23;20022;-96
2021/03/31 02:19:54;;;;;;;1999.90;999.90;;;8.60;99.90;;;;;;6127653;23;20101;-94
2021/03/31 02:22:27;;;;;;;1999.90;999.90;;;8.60;99.90;;;;;;6127744;23;20041;-95
2021/03/31 02:24:59;;;;;;;1999.90;999.90;;;8.60;99.90;;;;;;6127417;23;20030;-94
2021/03/31 02:27:26;;;;;;;1999.90;999.90;;;8.60;99.90;;;;;;6127077;23;20041;-94
2021/03/31 02:29:54;;;;;;;1999.90;999.90;;;8.60;99.90;;;;;;6127184;23;20022;-94
2021/03/31 02:32:23;;;;;;;1999.90;999.90;;;8.50;99.90;;;;;;6127191;23;20089;-94
2021/03/31 02:34:53;;;;;;;1999.90;999.90;;;8.50;99.90;;;;;;6127118;23;20484;-95
2021/03/31 02:37:23;;;;;;;1999.90;999.90;;;8.50;99.90;;;;;;6128792;23;20454;-94
2021/03/31 02:39:54;;;;;;;1999.90;999.90;;;8.50;99.90;;;;;;6127134;23;20026;-95
2021/03/31 02:42:25;;;;;;;1999.90;999.90;;;8.50;99.90;;;;;;6126948;23;20053;-95
2021/03/31 02:45:00;;;;;;;1999.90;999.90;;;8.40;99.90;;;;;;6127380;23;20022;-95
2021/03/31 02:47:36;;;;;;;1999.90;999.90;;;8.40;99.90;;;;;;6126574;23;20301;-96
2021/03/31 02:50:14;;;;;;;1999.90;999.90;;;8.40;99.90;;;;;;6127269;23;20026;-95
2021/03/31 02:52:50;;;;;;;1999.90;999.90;;;8.40;99.90;;;;;;6126379;23;20113;-95
2021/03/31 02:55:26;;;;;;;1999.90;999.90;;;8.30;99.90;;;;;;6127553;23;20110;-95
2021/03/31 02:58:02;;;;;;;1999.90;999.90;;;8.40;99.90;;;;;;6127019;23;20069;-95
2021/03/31 03:00:36;;;;;;;1999.90;999.90;;;8.30;99.90;;;;;;6126748;23;20029;-95
2021/03/31 03:03:20;;;;;;;1999.90;999.90;;;8.30;99.90;;;;;;6126604;23;20045;-95
2021/03/31 03:05:55;;;;;;;1999.90;999.90;;;8.20;99.90;;;;;;6126909;23;20382;-95
2021/03/31 03:08:34;;;;;;;1999.90;999.90;;;8.20;99.90;;;;;;6127283;23;20024;-95
2021/03/31 03:11:04;;;;;;;1999.90;999.90;;;8.20;99.90;;;;;;6127282;23;20108;-94
2021/03/31 03:13:34;;;;;;;1999.90;999.90;;;8.20;99.90;;;;;;6126512;23;20026;-95
2021/03/31 03:16:06;;;;;;;1999.90;999.90;;;8.20;99.90;;;;;;6127003;23;20021;-94
2021/03/31 03:18:34;;;;;;;1999.90;999.90;;;8.10;99.90;;;;;;6126980;23;20022;-94
2021/03/31 03:21:03;;;;;;;1999.90;999.90;;;8.10;99.90;;;;;;6126985;23;20025;-95
2021/03/31 03:23:50;;;;;;;1999.90;999.90;;;8.10;99.90;;;;;;6127019;23;20026;-95
2021/03/31 03:26:31;;;;;;;1999.90;999.90;;;8.00;99.90;;;;;;6126745;23;20021;-94
2021/03/31 03:29:08;;;;;;;1999.90;999.90;;;8.10;99.90;;;;;;6127059;23;20085;-95
2021/03/31 03:31:47;;;;;;;1999.90;999.90;;;8.10;99.90;;;;;;6126117;23;20033;-95
2021/03/31 03:34:24;;;;;;;1999.90;999.90;;;8.10;99.90;;;;;;6126041;23;20041;-94
2021/03/31 03:37:03;;;;;;;1999.90;999.90;;;8.00;99.90;;;;;;6130669;23;20081;-94
2021/03/31 03:39:38;;;;;;;1999.90;999.90;;;8.00;99.90;;;;;;6149694;23;20014;-95
2021/03/31 03:42:12;;;;;;;1999.90;999.90;;;8.00;99.90;;;;;;6137382;23;20029;-95
2021/03/31 03:44:56;;;;;;;1999.90;999.90;;;7.90;99.90;;;;;;6127985;23;20037;-95
2021/03/31 03:47:29;;;;;;;1999.90;999.90;;;7.90;99.90;;;;;;6126173;23;20022;-96
2021/03/31 03:50:02;;;;;;;1999.90;999.90;;;7.90;99.90;;;;;;6131119;23;20030;-96
2021/03/31 03:52:41;;;;;;;1999.90;999.90;;;7.90;99.90;;;;;;6131300;23;20084;-96
2021/03/31 03:55:24;;;;;;;1999.90;999.90;;;7.90;99.90;;;;;;6130672;23;20022;-96
2021/03/31 03:58:14;;;;;;;;;;;7.80;99.90;;;;;;6131780;23;20101;-96
2021/03/31 04:04:07;;;;;;;1999.90;999.90;;;7.80;99.90;;;;;;6056649;23;20086;-95
2021/03/31 04:07:08;;;;;;;1999.90;999.90;;;7.80;99.90;;;;;;6044905;23;20091;-95
2021/03/31 04:09:48;;;;;;;1999.90;999.90;;;7.80;99.90;;;;;;6043409;23;20027;-95
2021/03/31 04:24:14;;;;;;;1999.90;999.90;;;7.60;99.90;;;;;;5943370;24;20029;-96
2021/03/31 04:26:50;;;;;;;1999.90;999.90;;;7.60;99.90;;;;;;5989199;23;20091;-96
2021/03/31 04:29:29;;;;;;;1999.90;999.90;;;7.60;99.90;;;;;;6025728;23;20027;-96
2021/03/31 04:32:10;;;;;;;1999.90;999.90;;;7.60;99.90;;;;;;6024802;23;20036;-96
2021/03/31 04:38:21;;;;;;;1999.90;999.90;;;7.60;99.90;;;;;;6141247;23;20104;-96
2021/03/31 04:41:19;;;;;;;1999.90;999.90;;;7.50;99.90;;;;;;6120837;23;20022;-96
2021/03/31 04:44:29;;;;;;;1999.90;999.90;;;7.50;99.90;;;;;;6143774;23;20032;-96
2021/03/31 04:47:14;;;;;;;1999.90;999.90;;;7.50;99.90;;;;;;6135840;23;20129;-95
2021/03/31 04:52:45;;;;;;;1999.90;999.90;;;7.40;99.90;;;;;;6231143;23;20008;-96
2021/03/31 04:55:37;;;;;;;1999.90;999.90;;;7.40;99.90;;;;;;6228439;23;20306;-96
2021/03/31 04:58:06;;;;;;;1999.90;999.90;;;7.40;99.90;;;;;;6224488;23;20027;-96
2021/03/31 05:00:38;;;;;;;1999.90;999.90;;;7.40;99.90;;;;;;6223387;23;20024;-96
2021/03/31 05:03:18;;;;;;;1999.90;999.90;;;7.30;99.90;;;;;;6224407;23;20020;-96
2021/03/31 05:05:54;;;;;;;1999.90;999.90;;;7.30;99.90;;;;;;6220061;23;20501;-96
2021/03/31 05:08:31;;;;;;;1999.90;999.90;;;7.30;99.90;;;;;;6221544;23;20484;-96
2021/03/31 05:11:09;;;;;;;1999.90;999.90;;;7.30;99.90;;;;;;6223909;23;20028;-95
2021/03/31 05:13:37;;;;;;;1999.90;999.90;;;7.30;99.90;;;;;;6222074;23;20059;-96
2021/03/31 05:16:09;;;;;;;1999.90;999.90;;;7.30;99.90;;;;;;6219748;23;20471;-96
2021/03/31 05:18:47;;;;;;;1999.90;999.90;;;7.20;99.90;;;;;;6221290;23;20091;-94
2021/03/31 05:21:18;;;;;;;1999.90;999.90;;;7.20;99.90;;;;;;6221716;23;20029;-94
2021/03/31 05:23:47;;;;;;;1999.90;999.90;;;7.20;99.90;;;;;;6221388;23;20029;-94
2021/03/31 05:26:22;;;;;;;1999.90;999.90;;;7.20;99.90;;;;;;6221204;23;20020;-94
2021/03/31 05:28:55;;;;;;;1999.90;999.90;;;7.20;99.90;;;;;;6221343;23;20024;-95
2021/03/31 05:31:26;;;;;;;1999.90;999.90;;;7.20;99.90;;;;;;6222104;23;20036;-95
2021/03/31 05:34:02;;;;;;;1999.90;999.90;;;7.20;99.90;;;;;;6224193;23;20091;-94
2021/03/31 05:36:32;;;;;;;1999.90;999.90;;;7.10;99.90;;;;;;6238952;23;20047;-95
2021/03/31 05:39:04;;;;;;;1999.90;999.90;;;7.10;99.90;;;;;;6232893;23;20021;-94
2021/03/31 05:41:40;;;;;;;1999.90;999.90;;;7.10;99.90;;;;;;6224832;23;20070;-95
2021/03/31 05:44:11;;;;;;;1999.90;999.90;;;7.10;99.90;;;;;;6221835;23;20500;-95
2021/03/31 05:46:45;;;;;;;1999.90;999.90;;;7.10;99.90;;;;;;6220952;23;20025;-94
2021/03/31 05:49:15;;;;;;;1999.90;999.90;;;7.10;99.90;;;;;;6221302;23;20075;-95
2021/03/31 05:51:50;;;;;;;1999.90;999.90;;;7.10;99.90;;;;;;6220358;23;20028;-95
2021/03/31 05:54:18;;;;;;;1999.90;999.90;;;7.10;99.90;;;;;;6221644;23;20028;-95
2021/03/31 05:56:53;;;;;;;1999.90;999.90;;;7.10;99.90;;;;;;6221554;23;20071;-95
2021/03/31 05:59:21;;;;;;;1999.90;999.90;;;7.10;99.90;;;;;;6221264;23;20095;-96
2021/03/31 06:01:54;;;;;;;1999.90;999.90;;;7.10;99.90;;;;;;6221217;23;20025;-95
2021/03/31 06:04:23;;;;;;;1999.90;999.90;;;7.10;99.90;;;;;;6220455;23;20020;-95
2021/03/31 06:06:51;;;;;;;1999.90;999.90;;;7.10;99.90;;;;;;6221095;23;20032;-95
2021/03/31 06:09:21;;;;;;;1999.90;999.90;;;7.10;99.90;;;;;;6237513;23;20043;-94
2021/03/31 06:11:51;;;;;;;1999.90;999.90;;;7.10;99.90;;;;;;6237638;23;20051;-94
2021/03/31 06:14:30;;;;;;;1999.90;999.90;;;7.10;99.90;;;;;;6238085;23;20025;-94
2021/03/31 06:17:05;;;;;;;1999.90;999.90;;;7.10;99.90;;;;;;6227687;23;20032;-94
2021/03/31 06:19:34;;;;;;;1999.90;999.90;;;7.10;99.90;;;;;;6221062;23;20024;-94
2021/03/31 06:22:09;;;;;;;1999.90;999.90;;;7.10;99.90;;;;;;6219637;23;20080;-95
2021/03/31 06:24:44;;;;;;;1999.90;999.90;;;7.20;99.90;;;;;;6220051;23;20074;-95
2021/03/31 06:27:15;;;;;;;1999.90;999.90;;;7.20;99.90;;;;;;6219237;23;20043;-95
2021/03/31 06:29:44;;;;;;;1999.90;999.90;;;7.20;99.90;;;;;;6219533;23;20021;-95
2021/03/31 06:32:16;;;;;;;1999.90;999.90;;;7.30;99.90;;;;;;6220220;23;20024;-95
2021/03/31 06:34:57;;;;;;;1999.90;999.90;;;7.30;99.90;;;;;;6220998;23;20043;-95
2021/03/31 06:37:30;;;;;;;1999.90;999.90;;;7.40;99.90;;;;;;6220353;23;20059;-95
2021/03/31 06:40:08;;;;;;;1999.90;999.90;;;7.50;99.90;;;;;;6220566;23;20025;-96
2021/03/31 06:42:44;;;;;;;1999.90;999.90;;;7.60;99.90;;;;;;6220151;23;20021;-94
2021/03/31 06:45:35;;;;;;;1999.90;999.90;;;7.70;99.90;;;;;;6220521;23;20374;-95
2021/03/31 06:48:08;;;;;;;1999.90;999.90;;;7.80;99.90;;;;;;6220026;23;20099;-94
2021/03/31 06:50:56;;;;;;;1999.90;999.90;;;7.90;99.90;;;;;;6220843;23;20028;-95
2021/03/31 06:53:32;;;;;;;1999.90;999.90;;;8.00;99.90;;;;;;6227477;23;20067;-95
2021/03/31 06:56:12;;;;;;;1999.90;999.90;;;8.10;99.90;;;;;;6222166;23;20041;-94
2021/03/31 06:59:01;;;;;;;1999.90;999.90;;;8.20;99.90;;;;;;6218048;23;20027;-93
2021/03/31 07:01:31;;;;;;;1999.90;999.90;;;8.40;99.90;;;;;;6218316;23;20021;-96
2021/03/31 07:04:05;;;;;;;1999.90;999.90;;;8.40;99.90;;;;;;6218825;23;20025;-95
2021/03/31 07:06:33;;;;;;;1999.90;999.90;;;8.50;99.90;;;;;;6218646;23;20020;-93
2021/03/31 07:09:01;;;;;;;1999.90;999.90;;;8.70;99.90;;;;;;6217779;23;20027;-94
2021/03/31 07:11:36;;;;;;;1999.90;999.90;;;8.80;99.90;;;;;;6218598;23;20032;-94
2021/03/31 07:14:07;;;;;;;1999.90;999.90;;;8.80;99.90;;;;;;6217929;23;20025;-94
2021/03/31 07:16:36;;;;;;;1999.90;999.90;;;8.90;99.90;;;;;;6217181;23;20025;-93
2021/03/31 07:19:04;;;;;;;1999.90;999.90;;;9.00;99.90;;;;;;6217371;23;20020;-94
2021/03/31 07:21:38;;;;;;;1999.90;999.90;;;9.10;99.90;;;;;;6218517;23;20035;-93
2021/03/31 07:24:07;;;;;;;1999.90;999.90;;;9.30;99.90;;;;;;6218815;23;20024;-94
2021/03/31 07:26:35;;;;;;;1999.90;999.90;;;9.40;99.90;;;;;;6217894;23;20047;-94
2021/03/31 07:29:03;;;;;;;1999.90;999.90;;;9.60;99.90;;;;;;6217791;23;20023;-94
2021/03/31 07:31:32;;;;;;;1999.90;999.90;;;9.70;99.90;;;;;;6218530;23;20031;-93
2021/03/31 07:34:17;;;;;;;1999.90;999.90;;;9.90;99.90;;;;;;6218278;23;20024;-95
2021/03/31 07:36:49;;;;;;;1999.90;999.90;;;10.00;99.90;;;;;;6218270;23;20025;-95
2021/03/31 07:39:18;;;;;;;1999.90;999.90;;;10.20;99.90;;;;;;6218169;23;20017;-94
2021/03/31 07:41:46;;;;;;;1999.90;999.90;;;10.40;99.90;;;;;;6218273;23;20074;-95
2021/03/31 07:44:22;;;;;;;1999.90;999.90;;;10.50;99.70;;;;;;6217832;23;20025;-94
2021/03/31 07:46:53;;;;;;;1999.90;999.90;;;10.60;99.40;;;;;;6217509;23;20024;-94
2021/03/31 07:49:21;;;;;;;1999.90;999.90;;;10.70;99.50;;;;;;6218162;23;20318;-94
2021/03/31 07:51:58;;;;;;;1999.90;999.90;;;10.80;99.60;;;;;;6217530;23;20095;-94
2021/03/31 07:54:26;;;;;;;1999.90;999.90;;;10.90;99.50;;;;;;6217092;23;20021;-94
2021/03/31 07:56:54;;;;;;;1999.90;999.90;;;10.90;99.90;;;;;;6218615;23;20025;-95
2021/03/31 07:59:24;;;;;;;1999.90;999.90;;;11.00;99.80;;;;;;6217690;23;20026;-94
2021/03/31 08:01:57;;;;;;;1999.90;999.90;;;11.00;99.40;;;;;;6218001;23;20029;-94
2021/03/31 08:04:27;;;;;;;1999.90;999.90;;;11.00;99.10;;;;;;6217805;23;20439;-95
2021/03/31 08:07:00;;;;;;;1999.90;999.90;;;11.10;98.50;;;;;;6218534;23;20103;-95
2021/03/31 08:09:31;;;;;;;1999.90;999.90;;;11.20;98.40;;;;;;6219456;23;20443;-96
2021/03/31 08:12:06;;;;;;;1999.90;999.90;;;11.40;97.30;;;;;;6218448;23;20031;-94
2021/03/31 08:14:45;;;;;;;1999.90;999.90;;;11.50;96.80;;;;;;6217322;23;20033;-94
2021/03/31 08:17:34;;;;;;;1999.90;999.90;;;11.70;96.30;;;;;;6217072;23;20075;-95
2021/03/31 08:20:07;;;;;;;1999.90;999.90;;;11.80;96.10;;;;;;6217922;23;20079;-94
2021/03/31 08:22:39;;;;;;;1999.90;999.90;;;11.90;96.30;;;;;;6217836;23;20096;-95
2021/03/31 08:25:31;;;;;;;;;;;12.00;96.40;;;;;;6217710;23;20500;-94
2021/03/31 08:28:07;;;;;;;1999.90;999.90;;;12.10;95.60;;;;;;6217981;23;19916;-95
2021/03/31 08:30:40;;;;;;;1999.90;999.90;;;12.20;95.40;;;;;;6217483;23;20091;-94
2021/03/31 08:33:12;;;;;;;;;;;12.30;95.50;;;;;;6217924;23;20021;-95
2021/03/31 08:35:47;;;;;;;1999.90;999.90;;;12.40;95.30;;;;;;6216892;23;20294;-94
2021/03/31 08:38:32;;;;;;;1999.90;999.90;;;12.50;95.30;;;;;;6217071;23;20518;-95
2021/03/31 08:41:41;;;;;;;1999.90;999.90;;;12.70;95.00;;;;;;6217643;23;20032;-96
2021/03/31 08:58:33;;;;;;;1999.90;999.90;;;13.40;95.10;;;;;;6108183;23;20031;-95
2021/03/31 09:01:54;;;;;;;;;;;;;;;;;;;;;
2021/03/31 09:07:58;;;;;;;1999.90;999.90;;;14.00;94.40;;;;;;6219123;23;20047;-94
2021/03/31 09:10:41;;;;;;;1999.90;999.90;;;14.20;94.00;;;;;;6218407;23;20025;-95
2021/03/31 09:13:22;;;;;;;1999.90;999.90;;;14.30;93.60;;;;;;6217454;23;20024;-95
2021/03/31 09:15:55;;;;;;;1999.90;999.90;;;14.50;93.40;;;;;;6218439;23;20376;-96
2021/03/31 09:18:26;;;;;;;1999.90;999.90;;;14.60;92.40;;;;;;6218032;23;20017;-95
2021/03/31 09:28:30;;;;;;;1999.90;999.90;;;15.20;92.80;;;;;;6172758;23;20029;-95
2021/03/31 09:31:08;;;;;;;1999.90;999.90;;;15.40;92.30;;;;;;6219888;23;20062;-96
2021/03/31 09:33:46;;;;;;;1999.90;999.90;;;15.40;91.30;;;;;;6219564;23;20025;-96
2021/03/31 09:36:16;;;;;;;1999.90;999.90;;;15.40;90.80;;;;;;6220583;23;20027;-96
2021/03/31 09:39:10;;;;;;;1999.90;999.90;;;15.60;91.00;;;;;;6219183;23;20036;-95
2021/03/31 09:41:44;;;;;;;1999.90;999.90;;;15.60;91.60;;;;;;6220820;23;20413;-95
2021/03/31 09:47:56;;;;;;;1999.90;999.90;;;16.00;91.70;;;;;;6220043;23;20024;-96
2021/03/31 09:50:56;;;;;;;1999.90;999.90;;;16.10;92.00;;;;;;6070130;23;20049;-96
2021/03/31 09:53:36;;;;;;;1999.90;999.90;;;16.10;92.30;;;;;;6216980;23;20025;-95
2021/03/31 10:06:59;;;;;;;1999.90;999.90;;;16.80;84.40;;;;;;6106819;23;20018;-96
2021/03/31 10:10:19;;;;;;;;;;;;;;;;;;;;;
2021/03/31 10:13:05;;;;;;;1999.90;999.90;;;16.90;80.50;;;;;;6217159;23;20060;-95
2021/03/31 10:15:38;;;;;;;1999.90;999.90;;;17.00;79.70;;;;;;6218684;23;20336;-95
2021/03/31 10:18:10;;;;;;;1999.90;999.90;;;17.00;79.80;;;;;;6218921;23;20031;-95
2021/03/31 10:20:45;;;;;;;1999.90;999.90;;;17.20;82.60;;;;;;6217939;23;20348;-95
2021/03/31 10:23:25;;;;;;;1999.90;999.90;;;17.40;83.30;;;;;;6218376;23;20095;-95
2021/03/31 10:26:28;;;;;;;1999.90;999.90;;;17.60;82.20;;;;;;6218125;23;20025;-96
2021/03/31 10:29:10;;;;;;;1999.90;999.90;;;17.80;79.00;;;;;;6218286;23;20020;-96
2021/03/31 11:14:03;;;;;;;1999.90;999.90;;;20.00;66.90;;;;;;6147216;23;20044;-96
2021/03/31 11:16:41;;;;;;;1999.90;999.90;;;20.10;62.90;;;;;;6163134;23;20080;-96
2021/03/31 11:27:23;;;;;;;1999.90;999.90;;;20.70;62.90;;;;;;6193624;23;20021;-95
2021/03/31 11:29:51;;;;;;;1999.90;999.90;;;20.90;63.00;;;;;;6199508;23;20021;-94
2021/03/31 11:32:18;;;;;;;1999.90;999.90;;;21.00;60.30;;;;;;6207383;23;20025;-95
2021/03/31 11:34:50;;;;;;;1999.90;999.90;;;21.10;62.10;;;;;;6196348;23;20377;-95
2021/03/31 11:37:24;;;;;;;1999.90;999.90;;;21.20;60.20;;;;;;6190551;23;20025;-95
2021/03/31 11:39:53;;;;;;;1999.90;999.90;;;21.30;58.30;;;;;;6188306;23;20021;-96
2021/03/31 11:45:23;;;;;;;1999.90;999.90;;;21.50;58.10;;;;;;6230779;23;20021;-96
2021/03/31 11:47:52;;;;;;;1999.90;999.90;;;21.60;55.70;;;;;;6218216;23;20043;-96
2021/03/31 11:50:24;;;;;;;1999.90;999.90;;;21.70;56.60;;;;;;6218267;23;20028;-96
2021/03/31 11:52:53;;;;;;;1999.90;999.90;;;21.80;57.30;;;;;;6219838;23;20021;-96
2021/03/31 11:58:33;;;;;;;1999.90;999.90;;;22.00;56.30;;;;;;6175307;23;20084;-96
2021/03/31 12:01:02;;;;;;;1999.90;999.90;;;22.20;58.40;;;;;;6218191;23;20032;-96
2021/03/31 12:03:29;;;;;;;1999.90;999.90;;;22.30;57.30;;;;;;6217357;23;20077;-96
2021/03/31 12:05:56;;;;;;;1999.90;999.90;;;22.40;57.10;;;;;;6218545;23;20024;-96
2021/03/31 12:08:25;;;;;;;1999.90;999.90;;;22.50;56.00;;;;;;6219382;23;20028;-96
2021/03/31 12:10:55;;;;;;;1999.90;999.90;;;22.50;56.40;;;;;;6218089;23;20020;-96
2021/03/31 12:13:28;;;;;;;1999.90;999.90;;;22.60;59.00;;;;;;6218874;23;20024;-96
2021/03/31 12:20:09;;;;;;;1999.90;999.90;;;22.60;57.60;;;;;;6195574;23;20074;-96
2021/03/31 12:26:00;;;;;;;1999.90;999.90;;;22.80;56.10;;;;;;6205462;23;20021;-96
2021/03/31 12:28:49;;;;;;;1999.90;999.90;;;22.90;56.50;;;;;;6217922;23;20095;-96
2021/03/31 12:31:17;;;;;;;1999.90;999.90;;;23.10;54.30;;;;;;6217457;23;20031;-96
2021/03/31 12:33:45;;;;;;;1999.90;999.90;;;23.10;53.90;;;;;;6217159;23;20028;-96
2021/03/31 12:36:12;;;;;;;1999.90;999.90;;;23.20;56.10;;;;;;6217404;23;20248;-96
2021/03/31 12:38:40;;;;;;;1999.90;999.90;;;23.30;53.50;;;;;;6216906;23;20024;-96
2021/03/31 12:41:09;;;;;;;1999.90;999.90;;;23.40;53.80;;;;;;6216386;23;20017;-96
2021/03/31 12:43:36;;;;;;;1999.90;999.90;;;23.50;52.60;;;;;;6217521;23;20025;-96
2021/03/31 12:46:05;;;;;;;1999.90;999.90;;;23.60;51.00;;;;;;6217212;23;20027;-96
2021/03/31 12:48:32;;;;;;;1999.90;999.90;;;23.60;51.90;;;;;;6217544;23;20024;-96
2021/03/31 12:51:02;;;;;;;1999.90;999.90;;;23.60;51.40;;;;;;6217408;23;20506;-96
2021/03/31 12:53:32;;;;;;;1999.90;999.90;;;23.60;52.30;;;;;;6218561;23;20028;-95
2021/03/31 12:56:01;;;;;;;1999.90;999.90;;;23.80;53.00;;;;;;6221335;23;20357;-94
2021/03/31 12:58:30;;;;;;;1999.90;999.90;;;23.90;53.90;;;;;;6239433;23;20018;-94
2021/03/31 13:01:06;;;;;;;1999.90;999.90;;;23.90;51.70;;;;;;6240664;23;20024;-95
2021/03/31 13:03:53;;;;;;;1999.90;999.90;;;24.10;52.20;;;;;;6221635;23;20103;-95
2021/03/31 13:06:28;;;;;;;1999.90;999.90;;;24.20;53.70;;;;;;6219449;23;20044;-95
2021/03/31 13:09:11;;;;;;;1999.90;999.90;;;24.30;51.50;;;;;;6219099;23;20071;-95
2021/03/31 13:12:00;;;;;;;1999.90;999.90;;;24.40;51.20;;;;;;6218729;23;20034;-95
2021/03/31 13:17:48;;;;;;;1999.90;999.90;;;24.50;51.30;;;;;;6218713;23;20031;-95
2021/03/31 13:26:24;;;;;;;1999.90;999.90;;;24.90;51.20;;;;;;6194549;23;20098;-95
2021/03/31 13:31:40;;;;;;;1999.90;999.90;;;25.20;51.50;;;;;;6154219;23;20029;-95
2021/03/31 13:34:24;;;;;;;1999.90;999.90;;;25.40;51.20;;;;;;6219294;23;20038;-96
2021/03/31 13:36:56;;;;;;;1999.90;999.90;;;25.60;52.60;;;;;;6218712;23;20040;-95
2021/03/31 13:39:25;;;;;;;1999.90;999.90;;;25.70;52.10;;;;;;6218808;23;20017;-95
2021/03/31 13:41:52;;;;;;;1999.90;999.90;;;25.90;51.20;;;;;;6218699;23;20191;-95
2021/03/31 13:44:20;;;;;;;1999.90;999.90;;;26.00;50.80;;;;;;6218862;23;20025;-94
2021/03/31 13:47:03;;;;;;;1999.90;999.90;;;26.10;49.10;;;;;;6218594;23;20483;-95
2021/03/31 13:50:03;;;;;;;1999.90;999.90;;;26.10;49.40;;;;;;6218670;23;20447;-95
2021/03/31 13:52:35;;;;;;;1999.90;999.90;;;26.20;48.90;;;;;;6219352;23;20048;-94
2021/03/31 13:55:07;;;;;;;1999.90;999.90;;;26.20;48.10;;;;;;6219612;23;20052;-95
2021/03/31 13:57:58;;;;;;;1999.90;999.90;;;26.20;48.40;;;;;;6218463;23;20025;-95
2021/03/31 14:00:29;;;;;;;1999.90;999.90;;;26.40;47.90;;;;;;6218246;23;20016;-95
2021/03/31 14:02:59;;;;;;;1999.90;999.90;;;26.40;47.80;;;;;;6218475;23;20024;-95
2021/03/31 14:05:47;;;;;;;1999.90;999.90;;;26.40;46.50;;;;;;6218029;23;20026;-95
2021/03/31 14:08:34;;;;;;;1999.90;999.90;;;26.40;46.00;;;;;;6219208;23;20017;-95
2021/03/31 14:11:22;;;;;;;1999.90;999.90;;;26.40;48.30;;;;;;6219562;23;20021;-95
2021/03/31 14:14:14;;;;;;;1999.90;999.90;;;26.60;45.70;;;;;;6218831;23;20067;-95
2021/03/31 14:17:03;;;;;;;1999.90;999.90;;;26.70;46.50;;;;;;6218766;23;20024;-95
2021/03/31 14:19:37;;;;;;;1999.90;999.90;;;26.70;44.60;;;;;;6218144;23;20021;-95
2021/03/31 14:22:10;;;;;;;1999.90;999.90;;;26.70;45.60;;;;;;6219044;23;20020;-95
2021/03/31 14:24:41;;;;;;;1999.90;999.90;;;26.70;46.10;;;;;;6219927;23;20024;-95
2021/03/31 14:27:24;;;;;;;;;;;26.80;44.90;;;;;;6219103;23;20020;-95
2021/03/31 14:30:32;;;;;;;1999.90;999.90;;;27.00;45.80;;;;;;6217979;23;19915;-95
2021/03/31 14:33:20;;;;;;;1999.90;999.90;;;27.10;43.80;;;;;;6218218;23;20334;-95
2021/03/31 14:36:09;;;;;;;1999.90;999.90;;;27.10;45.20;;;;;;6218277;23;20456;-94
2021/03/31 14:38:56;;;;;;;1999.90;999.90;;;27.20;45.00;;;;;;6217593;23;20016;-95
2021/03/31 14:41:45;;;;;;;1999.90;999.90;;;27.20;45.20;;;;;;6218335;23;20048;-95
2021/03/31 14:44:13;;;;;;;1999.90;999.90;;;27.30;45.00;;;;;;6217914;23;20029;-95
2021/03/31 14:46:42;;;;;;;1999.90;999.90;;;27.50;45.00;;;;;;6218168;23;20496;-95
2021/03/31 14:49:30;;;;;;;1999.90;999.90;;;27.60;44.90;;;;;;6219084;23;20365;-94
2021/03/31 15:00:52;;;;;;;1999.90;999.90;;;27.40;45.40;;;;;;6126655;23;20049;-95
2021/03/31 15:03:20;;;;;;;1999.90;999.90;;;27.40;45.30;;;;;;6193202;23;20021;-96
2021/03/31 15:05:48;;;;;;;1999.90;999.90;;;27.50;45.10;;;;;;6217639;23;20024;-95
2021/03/31 15:08:17;;;;;;;1999.90;999.90;;;27.50;44.50;;;;;;6217679;23;20318;-95
2021/03/31 15:10:50;;;;;;;1999.90;999.90;;;27.40;44.90;;;;;;6217815;23;20099;-95
2021/03/31 15:13:39;;;;;;;1999.90;999.90;;;27.30;43.60;;;;;;6217508;23;20021;-94
2021/03/31 15:16:33;;;;;;;1999.90;999.90;;;27.40;45.40;;;;;;6217358;23;20168;-95
2021/03/31 15:19:28;;;;;;;1999.90;999.90;;;27.40;46.00;;;;;;6217369;23;20055;-95
2021/03/31 15:22:36;;;;;;;1999.90;999.90;;;27.50;47.30;;;;;;6217521;23;20024;-95
2021/03/31 15:25:11;;;;;;;1999.90;999.90;;;27.40;46.00;;;;;;6218019;23;20031;-94
2021/03/31 15:28:01;;;;;;;1999.90;999.90;;;27.40;46.20;;;;;;6218334;23;20083;-94
2021/03/31 15:30:41;;;;;;;1999.90;999.90;;;27.30;46.20;;;;;;6217229;23;20024;-95
2021/03/31 15:33:20;;;;;;;1999.90;999.90;;;27.20;45.20;;;;;;6217272;23;20049;-95